sensor_id;sensor_type;location;lat;lon;timestamp;temperature;humidity
15259;DHT22;34462;51.368;12.364;2023-01-31T00:02:03;4.20;99.90
15259;DHT22;34462;51.368;12.364;2023-01-31T00:04:31;4.20;99.90
15259;DHT22;34462;51.368;12.364;2023-01-31T00:06:59;4.20;99.90
15259;DHT22;34462;51.368;12.364;2023-01-31T00:09:27;4.20;99.90
15259;DHT22;34462;51.368;12.364;2023-01-31T00:11:55;4.20;99.90
15259;DHT22;34462;51.368;12.364;2023-01-31T00:14:23;4.20;99.90
15259;DHT22;34462;51.368;12.364;2023-01-31T00:16:52;4.30;99.90
15259;DHT22;34462;51.368;12.364;2023-01-31T00:19:21;4.30;99.90
15259;DHT22;34462;51.368;12.364;2023-01-31T00:21:50;4.40;99.90
15259;DHT22;34462;51.368;12.364;2023-01-31T00:24:18;4.40;99.90
15259;DHT22;34462;51.368;12.364;2023-01-31T00:26:46;4.30;99.90
15259;DHT22;34462;51.368;12.364;2023-01-31T00:29:22;4.30;99.90
15259;DHT22;34462;51.368;12.364;2023-01-31T00:31:51;4.30;99.90
15259;DHT22;34462;51.368;12.364;2023-01-31T00:34:19;4.30;99.90
15259;DHT22;34462;51.368;12.364;2023-01-31T00:36:49;4.30;99.90
15259;DHT22;34462;51.368;12.364;2023-01-31T00:39:17;4.30;99.90
15259;DHT22;34462;51.368;12.364;2023-01-31T00:41:45;4.30;99.90
15259;DHT22;34462;51.368;12.364;2023-01-31T00:44:13;4.30;99.90
15259;DHT22;34462;51.368;12.364;2023-01-31T00:46:41;4.30;99.90
15259;DHT22;34462;51.368;12.364;2023-01-31T00:49:10;4.40;99.90
15259;DHT22;34462;51.368;12.364;2023-01-31T00:51:38;4.40;99.90
15259;DHT22;34462;51.368;12.364;2023-01-31T00:54:08;4.40;99.90
15259;DHT22;34462;51.368;12.364;2023-01-31T00:56:36;4.40;99.90
15259;DHT22;34462;51.368;12.364;2023-01-31T00:59:04;4.40;99.90
15259;DHT22;34462;51.368;12.364;2023-01-31T01:01:34;4.20;99.90
15259;DHT22;34462;51.368;12.364;2023-01-31T01:04:04;4.10;99.90
15259;DHT22;34462;51.368;12.364;2023-01-31T01:06:32;4.10;99.90
15259;DHT22;34462;51.368;12.364;2023-01-31T01:09:01;4.00;99.90
15259;DHT22;34462;51.368;12.364;2023-01-31T01:11:32;3.90;99.90
15259;DHT22;34462;51.368;12.364;2023-01-31T01:14:02;3.90;99.90
15259;DHT22;34462;51.368;12.364;2023-01-31T01:16:33;3.80;99.90
15259;DHT22;34462;51.368;12.364;2023-01-31T01:19:03;3.80;99.90
15259;DHT22;34462;51.368;12.364;2023-01-31T01:21:33;3.80;99.90
15259;DHT22;34462;51.368;12.364;2023-01-31T01:24:06;3.80;99.90
15259;DHT22;34462;51.368;12.364;2023-01-31T01:26:40;3.80;99.90
15259;DHT22;34462;51.368;12.364;2023-01-31T01:29:08;3.70;99.90
15259;DHT22;34462;51.368;12.364;2023-01-31T01:31:37;3.80;99.90
15259;DHT22;34462;51.368;12.364;2023-01-31T01:34:09;3.80;99.90
15259;DHT22;34462;51.368;12.364;2023-01-31T01:36:40;3.80;99.90
15259;DHT22;34462;51.368;12.364;2023-01-31T01:39:11;3.80;99.90
15259;DHT22;34462;51.368;12.364;2023-01-31T01:41:40;3.80;99.90
15259;DHT22;34462;51.368;12.364;2023-01-31T01:44:44;3.80;99.90
15259;DHT22;34462;51.368;12.364;2023-01-31T01:47:33;3.80;99.90
15259;DHT22;34462;51.368;12.364;2023-01-31T01:50:09;3.80;99.90
15259;DHT22;34462;51.368;12.364;2023-01-31T01:52:45;3.80;99.90
15259;DHT22;34462;51.368;12.364;2023-01-31T01:55:21;3.80;99.90
15259;DHT22;34462;51.368;12.364;2023-01-31T01:57:57;3.80;99.90
15259;DHT22;34462;51.368;12.364;2023-01-31T02:00:30;3.80;99.90
15259;DHT22;34462;51.368;12.364;2023-01-31T02:03:03;4.00;99.90
15259;DHT22;34462;51.368;12.364;2023-01-31T02:05:39;3.90;99.90
15259;DHT22;34462;51.368;12.364;2023-01-31T02:08:10;4.00;99.90
15259;DHT22;34462;51.368;12.364;2023-01-31T02:10:44;3.90;99.90
15259;DHT22;34462;51.368;12.364;2023-01-31T02:13:18;4.00;99.90
15259;DHT22;34462;51.368;12.364;2023-01-31T02:15:48;4.00;99.90
15259;DHT22;34462;51.368;12.364;2023-01-31T02:18:18;4.00;99.90
15259;DHT22;34462;51.368;12.364;2023-01-31T02:21:11;3.90;99.90
15259;DHT22;34462;51.368;12.364;2023-01-31T02:27:54;3.90;99.90
15259;DHT22;34462;51.368;12.364;2023-01-31T02:33:59;4.00;99.90
15259;DHT22;34462;51.368;12.364;2023-01-31T02:36:46;3.90;99.90
15259;DHT22;34462;51.368;12.364;2023-01-31T02:39:27;3.90;99.90
15259;DHT22;34462;51.368;12.364;2023-01-31T02:42:06;4.10;99.90
15259;DHT22;34462;51.368;12.364;2023-01-31T02:44:49;4.10;99.90
15259;DHT22;34462;51.368;12.364;2023-01-31T02:47:37;4.10;99.90
15259;DHT22;34462;51.368;12.364;2023-01-31T02:50:20;4.10;99.90
15259;DHT22;34462;51.368;12.364;2023-01-31T02:52:58;4.10;99.90
15259;DHT22;34462;51.368;12.364;2023-01-31T02:55:34;4.00;99.90
15259;DHT22;34462;51.368;12.364;2023-01-31T02:58:26;4.00;99.90
15259;DHT22;34462;51.368;12.364;2023-01-31T03:01:00;4.00;99.90
15259;DHT22;34462;51.368;12.364;2023-01-31T03:03:34;4.00;99.90
15259;DHT22;34462;51.368;12.364;2023-01-31T03:09:40;3.90;99.90
15259;DHT22;34462;51.368;12.364;2023-01-31T03:12:28;4.00;99.90
15259;DHT22;34462;51.368;12.364;2023-01-31T03:15:18;3.90;99.90
15259;DHT22;34462;51.368;12.364;2023-01-31T03:18:23;4.00;99.90
15259;DHT22;34462;51.368;12.364;2023-01-31T03:20:59;4.00;99.90
15259;DHT22;34462;51.368;12.364;2023-01-31T03:23:36;4.00;99.90
15259;DHT22;34462;51.368;12.364;2023-01-31T03:26:07;3.90;99.90
15259;DHT22;34462;51.368;12.364;2023-01-31T03:28:38;4.00;99.90
15259;DHT22;34462;51.368;12.364;2023-01-31T03:31:14;4.00;99.90
15259;DHT22;34462;51.368;12.364;2023-01-31T03:33:48;3.90;99.90
15259;DHT22;34462;51.368;12.364;2023-01-31T03:36:25;4.00;99.90
15259;DHT22;34462;51.368;12.364;2023-01-31T03:39:14;3.90;99.90
15259;DHT22;34462;51.368;12.364;2023-01-31T03:41:56;4.00;99.90
15259;DHT22;34462;51.368;12.364;2023-01-31T03:44:39;3.90;99.90
15259;DHT22;34462;51.368;12.364;2023-01-31T03:47:16;4.00;99.90
15259;DHT22;34462;51.368;12.364;2023-01-31T03:49:50;3.90;99.90
15259;DHT22;34462;51.368;12.364;2023-01-31T03:52:25;3.90;99.90
15259;DHT22;34462;51.368;12.364;2023-01-31T03:55:02;4.00;99.90
15259;DHT22;34462;51.368;12.364;2023-01-31T03:57:37;4.00;99.90
15259;DHT22;34462;51.368;12.364;2023-01-31T04:00:11;4.00;99.90
15259;DHT22;34462;51.368;12.364;2023-01-31T04:02:42;4.00;99.90
15259;DHT22;34462;51.368;12.364;2023-01-31T04:05:12;4.00;99.90
15259;DHT22;34462;51.368;12.364;2023-01-31T04:07:45;4.10;99.90
15259;DHT22;34462;51.368;12.364;2023-01-31T04:10:17;4.10;99.90
15259;DHT22;34462;51.368;12.364;2023-01-31T04:12:46;4.00;99.90
15259;DHT22;34462;51.368;12.364;2023-01-31T04:15:14;4.00;99.90
15259;DHT22;34462;51.368;12.364;2023-01-31T04:17:43;4.10;99.90
15259;DHT22;34462;51.368;12.364;2023-01-31T04:20:12;4.10;99.90
15259;DHT22;34462;51.368;12.364;2023-01-31T04:22:41;4.10;99.90
15259;DHT22;34462;51.368;12.364;2023-01-31T04:25:09;4.10;99.90
15259;DHT22;34462;51.368;12.364;2023-01-31T04:27:39;4.00;99.90
15259;DHT22;34462;51.368;12.364;2023-01-31T04:30:08;4.00;99.90
15259;DHT22;34462;51.368;12.364;2023-01-31T04:32:37;3.90;99.90
15259;DHT22;34462;51.368;12.364;2023-01-31T04:35:06;3.90;99.90
15259;DHT22;34462;51.368;12.364;2023-01-31T04:37:34;3.90;99.90
15259;DHT22;34462;51.368;12.364;2023-01-31T04:40:03;3.80;99.90
15259;DHT22;34462;51.368;12.364;2023-01-31T04:42:32;3.80;99.90
15259;DHT22;34462;51.368;12.364;2023-01-31T04:45:02;3.80;99.90
15259;DHT22;34462;51.368;12.364;2023-01-31T04:47:31;3.70;99.90
15259;DHT22;34462;51.368;12.364;2023-01-31T04:49:59;3.60;99.90
15259;DHT22;34462;51.368;12.364;2023-01-31T04:52:27;3.70;99.90
15259;DHT22;34462;51.368;12.364;2023-01-31T04:54:56;3.70;99.90
15259;DHT22;34462;51.368;12.364;2023-01-31T04:57:24;3.70;99.90
15259;DHT22;34462;51.368;12.364;2023-01-31T04:59:52;3.70;99.90
15259;DHT22;34462;51.368;12.364;2023-01-31T05:02:22;3.70;99.90
15259;DHT22;34462;51.368;12.364;2023-01-31T05:04:50;3.70;99.90
15259;DHT22;34462;51.368;12.364;2023-01-31T05:07:18;3.70;99.90
15259;DHT22;34462;51.368;12.364;2023-01-31T05:09:46;3.60;99.90
15259;DHT22;34462;51.368;12.364;2023-01-31T05:12:14;3.70;99.90
15259;DHT22;34462;51.368;12.364;2023-01-31T05:14:42;3.70;99.90
15259;DHT22;34462;51.368;12.364;2023-01-31T05:17:10;3.60;99.90
15259;DHT22;34462;51.368;12.364;2023-01-31T05:19:40;3.60;99.90
15259;DHT22;34462;51.368;12.364;2023-01-31T05:22:09;3.60;99.90
15259;DHT22;34462;51.368;12.364;2023-01-31T05:24:37;3.60;99.90
15259;DHT22;34462;51.368;12.364;2023-01-31T05:27:05;3.60;99.90
15259;DHT22;34462;51.368;12.364;2023-01-31T05:29:33;3.60;99.90
15259;DHT22;34462;51.368;12.364;2023-01-31T05:32:02;3.60;99.90
15259;DHT22;34462;51.368;12.364;2023-01-31T05:34:31;3.50;99.90
15259;DHT22;34462;51.368;12.364;2023-01-31T05:37:01;3.50;99.90
15259;DHT22;34462;51.368;12.364;2023-01-31T05:39:29;3.60;99.90
15259;DHT22;34462;51.368;12.364;2023-01-31T05:41:58;3.50;99.90
15259;DHT22;34462;51.368;12.364;2023-01-31T05:44:26;3.60;99.90
15259;DHT22;34462;51.368;12.364;2023-01-31T05:46:54;3.60;99.90
15259;DHT22;34462;51.368;12.364;2023-01-31T05:49:23;3.60;99.90
15259;DHT22;34462;51.368;12.364;2023-01-31T05:51:51;3.50;99.90
15259;DHT22;34462;51.368;12.364;2023-01-31T05:54:20;3.50;99.90
15259;DHT22;34462;51.368;12.364;2023-01-31T05:56:48;3.50;99.90
15259;DHT22;34462;51.368;12.364;2023-01-31T05:59:16;3.50;99.90
15259;DHT22;34462;51.368;12.364;2023-01-31T06:01:45;3.60;99.90
15259;DHT22;34462;51.368;12.364;2023-01-31T06:04:13;3.50;99.90
15259;DHT22;34462;51.368;12.364;2023-01-31T06:06:41;3.60;99.90
15259;DHT22;34462;51.368;12.364;2023-01-31T06:09:10;3.60;99.90
15259;DHT22;34462;51.368;12.364;2023-01-31T06:11:39;3.60;99.90
15259;DHT22;34462;51.368;12.364;2023-01-31T06:14:08;3.70;99.90
15259;DHT22;34462;51.368;12.364;2023-01-31T06:16:39;3.70;99.90
15259;DHT22;34462;51.368;12.364;2023-01-31T06:19:07;3.80;99.90
15259;DHT22;34462;51.368;12.364;2023-01-31T06:21:35;3.80;99.90
15259;DHT22;34462;51.368;12.364;2023-01-31T06:24:04;3.80;99.90
15259;DHT22;34462;51.368;12.364;2023-01-31T06:26:33;3.80;99.90
15259;DHT22;34462;51.368;12.364;2023-01-31T06:29:02;3.80;99.90
15259;DHT22;34462;51.368;12.364;2023-01-31T06:31:31;3.80;99.90
15259;DHT22;34462;51.368;12.364;2023-01-31T06:33:59;3.80;99.90
15259;DHT22;34462;51.368;12.364;2023-01-31T06:36:27;3.90;99.90
15259;DHT22;34462;51.368;12.364;2023-01-31T06:38:56;4.10;99.90
15259;DHT22;34462;51.368;12.364;2023-01-31T06:41:24;4.00;99.90
15259;DHT22;34462;51.368;12.364;2023-01-31T06:43:53;4.00;99.90
15259;DHT22;34462;51.368;12.364;2023-01-31T06:46:23;3.90;99.90
15259;DHT22;34462;51.368;12.364;2023-01-31T06:48:51;3.90;99.90
15259;DHT22;34462;51.368;12.364;2023-01-31T06:51:20;3.90;99.90
15259;DHT22;34462;51.368;12.364;2023-01-31T06:53:48;3.90;99.90
15259;DHT22;34462;51.368;12.364;2023-01-31T06:56:18;3.90;99.90
15259;DHT22;34462;51.368;12.364;2023-01-31T06:58:47;3.90;99.90
15259;DHT22;34462;51.368;12.364;2023-01-31T07:01:15;3.90;99.90
15259;DHT22;34462;51.368;12.364;2023-01-31T07:03:45;3.90;99.90
15259;DHT22;34462;51.368;12.364;2023-01-31T07:06:14;3.90;99.90
15259;DHT22;34462;51.368;12.364;2023-01-31T07:08:45;4.00;99.90
15259;DHT22;34462;51.368;12.364;2023-01-31T07:11:13;4.10;99.90
15259;DHT22;34462;51.368;12.364;2023-01-31T07:13:42;4.10;99.90
15259;DHT22;34462;51.368;12.364;2023-01-31T07:16:11;4.00;99.90
15259;DHT22;34462;51.368;12.364;2023-01-31T07:18:40;4.10;99.90
15259;DHT22;34462;51.368;12.364;2023-01-31T07:21:09;4.10;99.90
15259;DHT22;34462;51.368;12.364;2023-01-31T07:23:37;4.10;99.90
15259;DHT22;34462;51.368;12.364;2023-01-31T07:26:05;4.20;99.90
15259;DHT22;34462;51.368;12.364;2023-01-31T07:28:34;4.20;99.90
15259;DHT22;34462;51.368;12.364;2023-01-31T07:31:05;4.20;99.90
15259;DHT22;34462;51.368;12.364;2023-01-31T07:33:36;4.20;99.90
15259;DHT22;34462;51.368;12.364;2023-01-31T07:36:07;4.20;99.90
15259;DHT22;34462;51.368;12.364;2023-01-31T07:38:39;4.10;99.90
15259;DHT22;34462;51.368;12.364;2023-01-31T07:41:09;4.10;99.90
15259;DHT22;34462;51.368;12.364;2023-01-31T07:43:38;4.00;99.90
15259;DHT22;34462;51.368;12.364;2023-01-31T07:46:06;4.00;99.90
15259;DHT22;34462;51.368;12.364;2023-01-31T07:48:38;4.00;99.90
15259;DHT22;34462;51.368;12.364;2023-01-31T07:51:06;4.00;99.90
15259;DHT22;34462;51.368;12.364;2023-01-31T07:53:37;4.00;99.90
15259;DHT22;34462;51.368;12.364;2023-01-31T07:56:09;4.10;99.90
15259;DHT22;34462;51.368;12.364;2023-01-31T07:58:40;4.10;99.90
15259;DHT22;34462;51.368;12.364;2023-01-31T08:01:13;4.20;99.90
15259;DHT22;34462;51.368;12.364;2023-01-31T08:04:00;4.30;99.90
15259;DHT22;34462;51.368;12.364;2023-01-31T08:06:45;4.30;99.90
15259;DHT22;34462;51.368;12.364;2023-01-31T08:09:15;4.50;99.90
15259;DHT22;34462;51.368;12.364;2023-01-31T08:11:44;4.50;99.90
15259;DHT22;34462;51.368;12.364;2023-01-31T08:14:12;4.50;99.90
15259;DHT22;34462;51.368;12.364;2023-01-31T08:16:40;4.40;99.90
15259;DHT22;34462;51.368;12.364;2023-01-31T08:19:08;4.40;99.90
15259;DHT22;34462;51.368;12.364;2023-01-31T08:21:36;4.50;99.90
15259;DHT22;34462;51.368;12.364;2023-01-31T08:24:05;4.50;99.90
15259;DHT22;34462;51.368;12.364;2023-01-31T08:26:35;4.50;99.90
15259;DHT22;34462;51.368;12.364;2023-01-31T08:29:03;4.50;99.90
15259;DHT22;34462;51.368;12.364;2023-01-31T08:31:31;4.60;99.90
15259;DHT22;34462;51.368;12.364;2023-01-31T08:34:00;4.70;99.90
15259;DHT22;34462;51.368;12.364;2023-01-31T08:36:29;4.70;99.90
15259;DHT22;34462;51.368;12.364;2023-01-31T08:38:58;4.60;99.90
15259;DHT22;34462;51.368;12.364;2023-01-31T08:41:28;4.70;99.90
15259;DHT22;34462;51.368;12.364;2023-01-31T08:44:00;4.70;99.90
15259;DHT22;34462;51.368;12.364;2023-01-31T08:46:32;4.70;99.90
15259;DHT22;34462;51.368;12.364;2023-01-31T08:49:03;4.70;99.90
15259;DHT22;34462;51.368;12.364;2023-01-31T08:51:33;4.70;99.90
15259;DHT22;34462;51.368;12.364;2023-01-31T08:54:01;4.70;99.90
15259;DHT22;34462;51.368;12.364;2023-01-31T08:56:29;4.80;99.90
15259;DHT22;34462;51.368;12.364;2023-01-31T08:58:59;4.80;99.90
15259;DHT22;34462;51.368;12.364;2023-01-31T09:01:27;4.70;99.90
15259;DHT22;34462;51.368;12.364;2023-01-31T09:03:56;4.70;99.90
15259;DHT22;34462;51.368;12.364;2023-01-31T09:06:25;4.80;99.90
15259;DHT22;34462;51.368;12.364;2023-01-31T09:08:55;4.80;99.90
15259;DHT22;34462;51.368;12.364;2023-01-31T09:11:26;4.90;99.90
15259;DHT22;34462;51.368;12.364;2023-01-31T09:13:56;4.90;99.90
15259;DHT22;34462;51.368;12.364;2023-01-31T09:16:26;5.00;99.90
15259;DHT22;34462;51.368;12.364;2023-01-31T09:18:55;5.00;99.90
15259;DHT22;34462;51.368;12.364;2023-01-31T09:21:24;5.10;99.90
15259;DHT22;34462;51.368;12.364;2023-01-31T09:23:54;5.10;99.90
15259;DHT22;34462;51.368;12.364;2023-01-31T09:26:24;5.10;99.90
15259;DHT22;34462;51.368;12.364;2023-01-31T09:28:52;5.10;99.90
15259;DHT22;34462;51.368;12.364;2023-01-31T09:31:21;5.10;99.90
15259;DHT22;34462;51.368;12.364;2023-01-31T09:33:51;5.20;99.90
15259;DHT22;34462;51.368;12.364;2023-01-31T09:36:22;5.20;99.90
15259;DHT22;34462;51.368;12.364;2023-01-31T09:38:53;5.20;99.90
15259;DHT22;34462;51.368;12.364;2023-01-31T09:41:27;5.20;99.90
15259;DHT22;34462;51.368;12.364;2023-01-31T09:44:02;5.30;99.90
15259;DHT22;34462;51.368;12.364;2023-01-31T09:46:36;5.30;99.90
15259;DHT22;34462;51.368;12.364;2023-01-31T09:49:14;5.30;99.90
15259;DHT22;34462;51.368;12.364;2023-01-31T09:51:51;5.40;99.90
15259;DHT22;34462;51.368;12.364;2023-01-31T09:54:27;5.40;99.90
15259;DHT22;34462;51.368;12.364;2023-01-31T09:57:07;5.50;99.90
15259;DHT22;34462;51.368;12.364;2023-01-31T09:59:48;5.60;99.90
15259;DHT22;34462;51.368;12.364;2023-01-31T10:02:43;5.70;99.90
15259;DHT22;34462;51.368;12.364;2023-01-31T10:05:28;5.80;99.90
15259;DHT22;34462;51.368;12.364;2023-01-31T10:08:12;5.70;99.90
15259;DHT22;34462;51.368;12.364;2023-01-31T10:10:47;5.70;99.90
15259;DHT22;34462;51.368;12.364;2023-01-31T10:13:22;5.80;99.90
15259;DHT22;34462;51.368;12.364;2023-01-31T10:16:01;5.70;99.90
15259;DHT22;34462;51.368;12.364;2023-01-31T10:18:35;5.80;99.90
15259;DHT22;34462;51.368;12.364;2023-01-31T10:21:12;5.90;99.90
15259;DHT22;34462;51.368;12.364;2023-01-31T10:23:49;5.90;99.90
15259;DHT22;34462;51.368;12.364;2023-01-31T10:26:24;5.90;99.90
15259;DHT22;34462;51.368;12.364;2023-01-31T10:28:59;5.90;99.90
15259;DHT22;34462;51.368;12.364;2023-01-31T10:31:35;5.90;99.90
15259;DHT22;34462;51.368;12.364;2023-01-31T10:34:13;6.00;99.90
15259;DHT22;34462;51.368;12.364;2023-01-31T10:36:48;6.00;99.90
15259;DHT22;34462;51.368;12.364;2023-01-31T10:39:25;6.00;99.90
15259;DHT22;34462;51.368;12.364;2023-01-31T10:42:13;6.10;99.90
15259;DHT22;34462;51.368;12.364;2023-01-31T10:44:52;6.10;99.90
15259;DHT22;34462;51.368;12.364;2023-01-31T10:47:28;6.10;99.90
15259;DHT22;34462;51.368;12.364;2023-01-31T10:50:00;6.10;99.90
15259;DHT22;34462;51.368;12.364;2023-01-31T10:52:52;6.00;99.90
15259;DHT22;34462;51.368;12.364;2023-01-31T10:55:43;5.90;99.90
15259;DHT22;34462;51.368;12.364;2023-01-31T10:58:22;5.80;99.90
15259;DHT22;34462;51.368;12.364;2023-01-31T11:00:50;5.80;99.90
15259;DHT22;34462;51.368;12.364;2023-01-31T11:03:19;5.70;99.90
15259;DHT22;34462;51.368;12.364;2023-01-31T11:05:49;5.70;99.90
15259;DHT22;34462;51.368;12.364;2023-01-31T11:08:31;5.60;99.90
15259;DHT22;34462;51.368;12.364;2023-01-31T11:11:07;5.70;99.90
15259;DHT22;34462;51.368;12.364;2023-01-31T11:13:37;5.70;99.90
15259;DHT22;34462;51.368;12.364;2023-01-31T11:16:08;5.70;99.90
15259;DHT22;34462;51.368;12.364;2023-01-31T11:18:43;5.70;99.90
15259;DHT22;34462;51.368;12.364;2023-01-31T11:21:19;5.70;99.90
15259;DHT22;34462;51.368;12.364;2023-01-31T11:24:00;5.50;99.90
15259;DHT22;34462;51.368;12.364;2023-01-31T11:26:32;5.50;99.90
15259;DHT22;34462;51.368;12.364;2023-01-31T11:29:08;5.60;99.90
15259;DHT22;34462;51.368;12.364;2023-01-31T11:31:44;5.60;99.90
15259;DHT22;34462;51.368;12.364;2023-01-31T11:34:20;5.60;99.90
15259;DHT22;34462;51.368;12.364;2023-01-31T11:36:50;5.50;99.90
15259;DHT22;34462;51.368;12.364;2023-01-31T11:39:27;5.50;99.90
15259;DHT22;34462;51.368;12.364;2023-01-31T11:42:05;5.50;99.90
15259;DHT22;34462;51.368;12.364;2023-01-31T11:44:34;5.50;99.90
15259;DHT22;34462;51.368;12.364;2023-01-31T11:47:04;5.50;99.90
15259;DHT22;34462;51.368;12.364;2023-01-31T11:49:40;5.60;99.90
15259;DHT22;34462;51.368;12.364;2023-01-31T11:52:15;5.60;99.90
15259;DHT22;34462;51.368;12.364;2023-01-31T11:54:49;5.60;99.90
15259;DHT22;34462;51.368;12.364;2023-01-31T11:57:22;5.50;99.90
15259;DHT22;34462;51.368;12.364;2023-01-31T11:59:54;5.60;99.90
15259;DHT22;34462;51.368;12.364;2023-01-31T12:02:30;5.50;99.90
15259;DHT22;34462;51.368;12.364;2023-01-31T12:05:11;5.60;99.90
15259;DHT22;34462;51.368;12.364;2023-01-31T12:07:44;5.50;99.90
15259;DHT22;34462;51.368;12.364;2023-01-31T12:10:32;5.40;99.90
15259;DHT22;34462;51.368;12.364;2023-01-31T12:13:12;5.50;99.90
15259;DHT22;34462;51.368;12.364;2023-01-31T12:15:51;5.50;99.90
15259;DHT22;34462;51.368;12.364;2023-01-31T12:18:50;5.50;99.90
15259;DHT22;34462;51.368;12.364;2023-01-31T12:21:42;5.60;99.90
15259;DHT22;34462;51.368;12.364;2023-01-31T12:24:27;5.60;99.90
15259;DHT22;34462;51.368;12.364;2023-01-31T12:27:13;5.70;99.90
15259;DHT22;34462;51.368;12.364;2023-01-31T12:30:02;5.70;99.90
15259;DHT22;34462;51.368;12.364;2023-01-31T12:32:52;5.70;99.90
15259;DHT22;34462;51.368;12.364;2023-01-31T12:35:43;5.60;99.90
15259;DHT22;34462;51.368;12.364;2023-01-31T12:38:38;5.60;99.90
15259;DHT22;34462;51.368;12.364;2023-01-31T12:41:28;5.60;99.90
15259;DHT22;34462;51.368;12.364;2023-01-31T12:44:11;5.60;99.90
15259;DHT22;34462;51.368;12.364;2023-01-31T12:47:22;5.60;99.90
15259;DHT22;34462;51.368;12.364;2023-01-31T12:50:17;5.60;99.90
15259;DHT22;34462;51.368;12.364;2023-01-31T12:53:27;5.70;99.90
15259;DHT22;34462;51.368;12.364;2023-01-31T12:56:19;5.70;99.90
15259;DHT22;34462;51.368;12.364;2023-01-31T12:59:02;5.80;99.90
15259;DHT22;34462;51.368;12.364;2023-01-31T13:01:48;5.80;99.90
15259;DHT22;34462;51.368;12.364;2023-01-31T13:04:32;5.80;99.90
15259;DHT22;34462;51.368;12.364;2023-01-31T13:07:11;5.80;99.90
15259;DHT22;34462;51.368;12.364;2023-01-31T13:09:45;5.70;99.90
15259;DHT22;34462;51.368;12.364;2023-01-31T13:12:17;5.70;99.90
15259;DHT22;34462;51.368;12.364;2023-01-31T13:14:56;5.60;99.90
15259;DHT22;34462;51.368;12.364;2023-01-31T13:17:32;5.60;99.90
15259;DHT22;34462;51.368;12.364;2023-01-31T13:20:17;5.50;99.90
15259;DHT22;34462;51.368;12.364;2023-01-31T13:22:55;5.50;99.90
15259;DHT22;34462;51.368;12.364;2023-01-31T13:25:34;5.50;99.90
15259;DHT22;34462;51.368;12.364;2023-01-31T13:28:12;5.60;99.90
15259;DHT22;34462;51.368;12.364;2023-01-31T13:30:50;5.60;99.90
15259;DHT22;34462;51.368;12.364;2023-01-31T13:33:34;5.60;99.90
15259;DHT22;34462;51.368;12.364;2023-01-31T13:36:11;5.70;99.90
15259;DHT22;34462;51.368;12.364;2023-01-31T13:38:47;5.80;99.90
15259;DHT22;34462;51.368;12.364;2023-01-31T13:41:26;5.70;99.90
15259;DHT22;34462;51.368;12.364;2023-01-31T13:43:58;5.80;99.90
15259;DHT22;34462;51.368;12.364;2023-01-31T13:46:33;5.80;99.90
15259;DHT22;34462;51.368;12.364;2023-01-31T13:49:07;5.80;99.90
15259;DHT22;34462;51.368;12.364;2023-01-31T13:51:45;5.80;99.90
15259;DHT22;34462;51.368;12.364;2023-01-31T13:54:20;5.80;99.90
15259;DHT22;34462;51.368;12.364;2023-01-31T13:56:54;5.80;99.90
15259;DHT22;34462;51.368;12.364;2023-01-31T13:59:26;5.80;99.90
15259;DHT22;34462;51.368;12.364;2023-01-31T14:01:58;5.80;99.90
15259;DHT22;34462;51.368;12.364;2023-01-31T14:04:31;5.70;99.90
15259;DHT22;34462;51.368;12.364;2023-01-31T14:07:16;5.70;99.90
15259;DHT22;34462;51.368;12.364;2023-01-31T14:16:37;5.60;99.90
15259;DHT22;34462;51.368;12.364;2023-01-31T14:22:30;5.60;99.90
15259;DHT22;34462;51.368;12.364;2023-01-31T14:25:02;5.60;99.90
15259;DHT22;34462;51.368;12.364;2023-01-31T14:27:36;5.60;99.90
15259;DHT22;34462;51.368;12.364;2023-01-31T14:30:20;5.60;99.90
15259;DHT22;34462;51.368;12.364;2023-01-31T14:33:12;5.60;99.90
15259;DHT22;34462;51.368;12.364;2023-01-31T14:36:06;5.60;99.90
15259;DHT22;34462;51.368;12.364;2023-01-31T14:39:25;5.60;99.90
15259;DHT22;34462;51.368;12.364;2023-01-31T14:42:33;5.50;99.90
15259;DHT22;34462;51.368;12.364;2023-01-31T14:45:33;5.40;99.90
15259;DHT22;34462;51.368;12.364;2023-01-31T14:48:22;5.40;99.90
15259;DHT22;34462;51.368;12.364;2023-01-31T14:51:13;5.30;99.90
15259;DHT22;34462;51.368;12.364;2023-01-31T14:57:13;5.20;99.90
15259;DHT22;34462;51.368;12.364;2023-01-31T14:59:54;5.10;99.90
15259;DHT22;34462;51.368;12.364;2023-01-31T15:02:50;5.10;99.90
15259;DHT22;34462;51.368;12.364;2023-01-31T15:05:38;5.00;99.90
15259;DHT22;34462;51.368;12.364;2023-01-31T15:08:36;5.00;99.90
15259;DHT22;34462;51.368;12.364;2023-01-31T15:11:11;4.90;99.90
15259;DHT22;34462;51.368;12.364;2023-01-31T15:14:26;4.90;99.90
15259;DHT22;34462;51.368;12.364;2023-01-31T15:17:10;4.80;99.90
15259;DHT22;34462;51.368;12.364;2023-01-31T15:20:11;4.80;99.90
15259;DHT22;34462;51.368;12.364;2023-01-31T15:22:43;4.80;99.90
15259;DHT22;34462;51.368;12.364;2023-01-31T15:25:24;4.80;99.90
15259;DHT22;34462;51.368;12.364;2023-01-31T15:28:00;4.80;99.90
15259;DHT22;34462;51.368;12.364;2023-01-31T15:30:32;4.80;99.90
15259;DHT22;34462;51.368;12.364;2023-01-31T15:33:11;4.80;99.90
15259;DHT22;34462;51.368;12.364;2023-01-31T15:35:47;5.00;99.90
15259;DHT22;34462;51.368;12.364;2023-01-31T15:38:24;4.80;99.90
15259;DHT22;34462;51.368;12.364;2023-01-31T15:41:16;4.80;99.90
15259;DHT22;34462;51.368;12.364;2023-01-31T15:43:50;4.80;99.90
15259;DHT22;34462;51.368;12.364;2023-01-31T15:46:24;4.90;99.90
15259;DHT22;34462;51.368;12.364;2023-01-31T15:48:55;4.90;99.90
15259;DHT22;34462;51.368;12.364;2023-01-31T15:51:25;4.90;99.90
15259;DHT22;34462;51.368;12.364;2023-01-31T15:54:01;4.90;99.90
15259;DHT22;34462;51.368;12.364;2023-01-31T15:56:34;4.90;99.90
15259;DHT22;34462;51.368;12.364;2023-01-31T15:59:10;5.00;99.90
15259;DHT22;34462;51.368;12.364;2023-01-31T16:01:46;5.00;99.90
15259;DHT22;34462;51.368;12.364;2023-01-31T16:04:15;5.00;99.90
15259;DHT22;34462;51.368;12.364;2023-01-31T16:06:45;5.10;99.90
15259;DHT22;34462;51.368;12.364;2023-01-31T16:09:24;5.20;99.90
15259;DHT22;34462;51.368;12.364;2023-01-31T16:11:56;5.10;99.90
15259;DHT22;34462;51.368;12.364;2023-01-31T16:14:27;5.20;99.90
15259;DHT22;34462;51.368;12.364;2023-01-31T16:16:57;5.20;99.90
15259;DHT22;34462;51.368;12.364;2023-01-31T16:19:28;5.30;99.90
15259;DHT22;34462;51.368;12.364;2023-01-31T16:21:59;5.30;99.90
15259;DHT22;34462;51.368;12.364;2023-01-31T16:24:27;5.30;99.90
15259;DHT22;34462;51.368;12.364;2023-01-31T16:26:59;5.30;99.90
15259;DHT22;34462;51.368;12.364;2023-01-31T16:29:38;5.30;99.90
15259;DHT22;34462;51.368;12.364;2023-01-31T16:32:15;5.30;99.90
15259;DHT22;34462;51.368;12.364;2023-01-31T16:34:52;5.40;99.90
15259;DHT22;34462;51.368;12.364;2023-01-31T16:37:34;5.40;99.90
15259;DHT22;34462;51.368;12.364;2023-01-31T16:40:06;5.40;99.90
15259;DHT22;34462;51.368;12.364;2023-01-31T16:42:46;5.40;99.90